createdAt,value
2019-04-22T00:01:23.136Z,10.30
2019-04-22T00:03:52.477Z,10.30
2019-04-22T00:06:30.710Z,10.20
2019-04-22T00:09:04.112Z,10.20
2019-04-22T00:11:29.155Z,10.10
2019-04-22T00:13:53.861Z,10.20
2019-04-22T00:16:27.425Z,10.30
2019-04-22T00:19:01.836Z,10.30
2019-04-22T00:21:12.624Z,10.30
2019-04-22T00:23:39.341Z,10.20
2019-04-22T00:26:10.951Z,10.20
2019-04-22T00:28:30.825Z,10.30
2019-04-22T00:30:54.815Z,10.40
2019-04-22T00:33:24.951Z,10.40
2019-04-22T00:35:49.409Z,10.60
2019-04-22T00:38:20.328Z,10.60
2019-04-22T00:40:39.716Z,10.70
2019-04-22T00:43:07.064Z,10.70
2019-04-22T00:45:33.318Z,10.80
2019-04-22T00:48:02.462Z,10.80
2019-04-22T00:50:34.766Z,10.80
2019-04-22T00:52:59.050Z,10.80
2019-04-22T00:55:22.409Z,10.80
2019-04-22T00:57:38.775Z,10.80
2019-04-22T01:00:11.964Z,10.80
2019-04-22T01:02:44.532Z,10.80
2019-04-22T01:05:00.869Z,10.70
2019-04-22T01:07:23.713Z,10.70
2019-04-22T01:09:58.649Z,10.80
2019-04-22T01:12:24.177Z,10.70
2019-04-22T01:14:52.040Z,10.70
2019-04-22T01:17:11.640Z,10.70
2019-04-22T01:19:47.104Z,10.70
2019-04-22T01:22:06.206Z,10.70
2019-04-22T01:24:27.738Z,10.70
2019-04-22T01:26:49.194Z,10.70
2019-04-22T01:29:12.284Z,10.70
2019-04-22T01:31:30.479Z,10.70
2019-04-22T01:34:07.912Z,10.70
2019-04-22T01:36:38.439Z,10.70
2019-04-22T01:39:13.784Z,10.70
2019-04-22T01:41:42.413Z,10.70
2019-04-22T01:44:27.880Z,10.70
2019-04-22T01:46:31.580Z,10.70
2019-04-22T01:48:57.798Z,10.60
2019-04-22T01:51:35.518Z,10.60
2019-04-22T01:53:56.542Z,10.60
2019-04-22T01:56:16.292Z,10.50
2019-04-22T01:58:33.527Z,10.60
2019-04-22T02:01:08.906Z,10.60
2019-04-22T02:03:33.213Z,10.60
2019-04-22T02:06:03.635Z,10.60
2019-04-22T02:08:33.356Z,10.50
2019-04-22T02:11:07.988Z,10.50
2019-04-22T02:13:15.445Z,10.50
2019-04-22T02:15:47.343Z,10.40
2019-04-22T02:18:19.317Z,10.40
2019-04-22T02:20:40.311Z,10.40
2019-04-22T02:23:16.248Z,10.40
2019-04-22T02:25:32.782Z,10.40
2019-04-22T02:28:02.819Z,10.40
2019-04-22T02:30:30.447Z,10.40
2019-04-22T02:33:06.009Z,10.40
2019-04-22T02:35:23.770Z,10.40
2019-04-22T02:37:35.915Z,10.40
2019-04-22T02:40:09.231Z,10.30
2019-04-22T02:42:35.063Z,10.40
2019-04-22T02:49:53.462Z,10.20
2019-04-22T02:52:26.272Z,10.20
2019-04-22T02:54:49.079Z,10.20
2019-04-22T02:57:26.129Z,10.20
2019-04-22T02:59:39.775Z,10.20
2019-04-22T03:02:07.602Z,10.10
2019-04-22T03:04:22.785Z,10.20
2019-04-22T03:07:03.718Z,10.10
2019-04-22T03:09:24.130Z,10.10
2019-04-22T03:12:02.589Z,10.10
2019-04-22T03:19:17.774Z,10.00
2019-04-22T03:21:31.175Z,10.00
2019-04-22T03:31:39.744Z,9.70
2019-04-22T03:34:15.463Z,9.70
2019-04-22T03:36:48.456Z,9.60
2019-04-22T03:39:01.406Z,9.50
2019-04-22T03:41:31.272Z,9.50
2019-04-22T03:43:35.793Z,9.50
2019-04-22T03:45:46.437Z,9.30
2019-04-22T03:48:16.154Z,9.30
2019-04-22T03:50:52.417Z,9.30
2019-04-22T03:53:15.382Z,9.30
2019-04-22T03:57:57.325Z,9.30
2019-04-22T04:00:47.720Z,9.20
2019-04-22T04:03:00.965Z,9.30
2019-04-22T04:05:49.667Z,9.30
2019-04-22T04:07:52.892Z,9.30
2019-04-22T04:10:27.920Z,9.30
2019-04-22T04:12:49.400Z,9.30
2019-04-22T04:15:21.089Z,9.30
2019-04-22T04:17:51.984Z,9.30
2019-04-22T04:22:46.651Z,9.30
2019-04-22T04:37:22.790Z,9.30
2019-04-22T04:39:36.508Z,9.30
2019-04-22T04:42:18.124Z,9.30
2019-04-22T04:44:50.778Z,9.30
2019-04-22T04:46:59.009Z,9.40
2019-04-22T04:54:21.467Z,9.50
2019-04-22T04:56:40.651Z,9.60
2019-04-22T05:01:30.725Z,9.70
2019-04-22T05:04:04.637Z,9.70
2019-04-22T05:06:22.197Z,9.70
2019-04-22T05:11:16.354Z,9.80
2019-04-22T05:13:49.212Z,9.80
2019-04-22T05:16:17.420Z,9.90
2019-04-22T05:18:37.417Z,10.00
2019-04-22T05:21:09.663Z,10.10
2019-04-22T05:23:28.886Z,10.20
2019-04-22T05:25:40.358Z,10.20
2019-04-22T05:28:12.181Z,10.30
2019-04-22T05:30:55.767Z,10.50
2019-04-22T05:33:01.851Z,10.40
2019-04-22T05:35:30.919Z,10.60
2019-04-22T05:37:56.591Z,10.70
2019-04-22T05:40:24.172Z,10.80
2019-04-22T05:42:51.512Z,10.80
2019-04-22T05:45:19.172Z,10.90
2019-04-22T05:47:44.347Z,11.00
2019-04-22T05:50:02.553Z,11.00
2019-04-22T05:52:49.787Z,11.10
2019-04-22T05:55:05.366Z,11.20
2019-04-22T05:57:26.875Z,11.20
2019-04-22T05:59:52.235Z,11.40
2019-04-22T06:02:23.444Z,11.40
2019-04-22T06:04:44.925Z,11.40
2019-04-22T06:07:06.698Z,11.50
2019-04-22T06:09:32.341Z,11.60
2019-04-22T06:11:54.469Z,11.70
2019-04-22T06:14:24.870Z,11.80
2019-04-22T06:16:53.240Z,11.90
2019-04-22T06:19:33.330Z,12.00
2019-04-22T06:21:44.080Z,12.10
2019-04-22T06:24:16.613Z,12.20
2019-04-22T06:29:09.335Z,12.50
2019-04-22T06:31:36.917Z,12.70
2019-04-22T06:36:27.532Z,13.50
2019-04-22T06:38:46.232Z,14.70
2019-04-22T06:41:16.463Z,16.10
2019-04-22T06:43:44.648Z,17.40
2019-04-22T06:46:09.818Z,17.50
2019-04-22T06:48:30.116Z,17.80
2019-04-22T06:51:17.855Z,18.40
2019-04-22T06:53:28.265Z,19.20
2019-04-22T06:55:53.820Z,19.50
2019-04-22T06:58:16.680Z,19.80
2019-04-22T07:00:42.828Z,20.50
2019-04-22T07:05:32.808Z,20.80
2019-04-22T07:08:04.095Z,20.90
2019-04-22T07:12:58.314Z,21.40
2019-04-22T07:15:40.645Z,21.30
2019-04-22T07:17:52.254Z,21.90
2019-04-22T07:20:18.031Z,21.80
2019-04-22T07:22:40.173Z,21.80
2019-04-22T07:25:06.269Z,22.30
2019-04-22T07:27:27.568Z,22.80
2019-04-22T07:30:03.931Z,23.50
2019-04-22T07:32:39.689Z,23.50
2019-04-22T07:34:52.726Z,23.50
2019-04-22T07:39:39.291Z,23.60
2019-04-22T07:42:12.616Z,23.50
2019-04-22T07:47:04.823Z,23.60
2019-04-22T07:49:32.293Z,23.50
2019-04-22T07:51:49.612Z,23.60
2019-04-22T07:54:22.084Z,23.80
2019-04-22T07:56:48.056Z,23.90
2019-04-22T07:59:09.581Z,24.30
2019-04-22T08:01:35.504Z,24.30
2019-04-22T08:04:08.638Z,23.90
2019-04-22T08:06:32.550Z,24.60
2019-04-22T08:09:01.821Z,25.40
2019-04-22T08:11:37.214Z,25.90
2019-04-22T08:13:46.991Z,26.30
2019-04-22T08:16:19.939Z,26.30
2019-04-22T08:18:39.121Z,25.70
2019-04-22T08:21:04.723Z,25.00
2019-04-22T08:23:39.459Z,25.00
2019-04-22T08:26:01.019Z,25.50
2019-04-22T08:30:53.590Z,25.00
2019-04-22T08:33:22.095Z,25.20
2019-04-22T08:36:00.774Z,26.20
2019-04-22T08:38:11.956Z,26.20
2019-04-22T08:40:43.227Z,26.80
2019-04-22T08:43:12.632Z,27.00
2019-04-22T08:45:36.047Z,26.80
2019-04-22T08:47:57.764Z,26.80
2019-04-22T08:50:25.494Z,27.10
2019-04-22T08:52:48.150Z,26.80
2019-04-22T08:55:17.958Z,27.30
2019-04-22T09:00:21.510Z,27.20
2019-04-22T09:02:32.719Z,27.50
2019-04-22T09:04:58.408Z,27.70
2019-04-22T09:07:28.609Z,27.20
2019-04-22T09:09:51.848Z,28.50
2019-04-22T09:14:41.667Z,27.60
2019-04-22T09:17:10.161Z,27.00
2019-04-22T09:19:38.504Z,27.30
2019-04-22T09:22:08.339Z,27.40
2019-04-22T09:24:32.566Z,27.40
2019-04-22T09:26:54.271Z,27.50
2019-04-22T09:31:44.663Z,26.80
2019-04-22T09:34:20.878Z,26.70
2019-04-22T09:36:43.962Z,26.40
2019-04-22T09:39:01.088Z,26.00
2019-04-22T09:41:34.581Z,26.40
2019-04-22T09:43:57.060Z,26.40
2019-04-22T09:46:33.125Z,26.00
2019-04-22T09:48:50.170Z,26.30
2019-04-22T09:51:12.014Z,26.20
2019-04-22T09:53:46.798Z,26.70
2019-04-22T09:56:15.411Z,26.70
2019-04-22T09:58:40.342Z,26.70
2019-04-22T10:01:09.009Z,26.20
2019-04-22T10:03:25.880Z,26.10
2019-04-22T10:06:00.751Z,26.00
2019-04-22T10:08:24.651Z,25.90
2019-04-22T10:10:51.676Z,25.30
2019-04-22T10:13:12.963Z,24.60
2019-04-22T10:15:44.834Z,24.20
2019-04-22T10:18:02.800Z,24.10
2019-04-22T10:20:36.276Z,24.00
2019-04-22T10:22:57.719Z,24.00
2019-04-22T10:25:28.007Z,24.30
2019-04-22T10:27:56.935Z,24.40
2019-04-22T10:30:31.889Z,24.40
2019-04-22T10:32:42.057Z,24.00
2019-04-22T10:34:48.547Z,23.80
2019-04-22T10:37:14.635Z,23.70
2019-04-22T10:39:45.182Z,23.70
2019-04-22T10:42:02.861Z,23.90
2019-04-22T10:44:28.900Z,24.20
2019-04-22T10:46:53.916Z,24.00
2019-04-22T10:49:20.597Z,23.50
2019-04-22T10:51:48.608Z,23.50
2019-04-22T10:54:13.608Z,23.50
2019-04-22T10:56:41.067Z,23.60
2019-04-22T10:59:06.798Z,23.60
2019-04-22T11:01:33.696Z,23.60
2019-04-22T11:03:59.549Z,23.90
2019-04-22T11:06:25.369Z,24.10
2019-04-22T11:08:56.368Z,24.20
2019-04-22T11:11:31.504Z,24.40
2019-04-22T11:13:44.111Z,24.10
2019-04-22T11:16:09.813Z,24.00
2019-04-22T11:18:36.151Z,23.80
2019-04-22T11:21:02.917Z,23.70
2019-04-22T11:23:28.963Z,23.70
2019-04-22T11:25:54.972Z,23.30
2019-04-22T11:28:20.987Z,23.40
2019-04-22T11:30:48.103Z,23.60
2019-04-22T11:33:14.280Z,23.60
2019-04-22T11:35:39.579Z,23.60
2019-04-22T11:38:06.529Z,23.80
2019-04-22T11:40:37.828Z,23.70
2019-04-22T11:42:59.607Z,23.60
2019-04-22T11:45:24.057Z,23.80
2019-04-22T11:47:51.056Z,23.60
2019-04-22T11:50:17.759Z,23.60
2019-04-22T11:52:42.888Z,23.80
2019-04-22T11:55:08.915Z,23.80
2019-04-22T11:57:35.019Z,23.70
2019-04-22T12:00:01.058Z,23.50
2019-04-22T12:02:29.074Z,23.50
2019-04-22T12:04:54.018Z,23.40
2019-04-22T12:07:21.210Z,23.40
2019-04-22T12:09:45.972Z,23.50
2019-04-22T12:12:12.007Z,23.50
2019-04-22T12:14:38.241Z,23.30
2019-04-22T12:17:05.739Z,23.30
2019-04-22T12:19:31.307Z,23.30
2019-04-22T12:21:57.676Z,23.30
2019-04-22T12:24:25.099Z,23.30
2019-04-22T12:26:50.646Z,23.20
2019-04-22T12:29:16.897Z,23.20
2019-04-22T12:31:42.024Z,23.20
2019-04-22T12:34:08.035Z,23.20
2019-04-22T12:36:36.146Z,23.00
2019-04-22T12:39:00.934Z,23.00
2019-04-22T12:41:27.797Z,22.90
2019-04-22T12:43:53.728Z,23.10
2019-04-22T12:46:20.499Z,23.10
2019-04-22T12:48:46.916Z,23.10
2019-04-22T12:51:13.188Z,23.10
2019-04-22T12:53:38.105Z,23.00
2019-04-22T12:56:04.950Z,22.80
2019-04-22T12:58:31.681Z,22.80
2019-04-22T13:00:57.125Z,22.80
2019-04-22T13:03:24.343Z,22.80
2019-04-22T13:05:49.461Z,22.80
2019-04-22T13:08:15.864Z,22.60
2019-04-22T13:10:53.363Z,22.60
2019-04-22T13:13:09.206Z,22.60
2019-04-22T13:15:35.064Z,22.60
2019-04-22T13:18:09.979Z,22.70
2019-04-22T13:20:28.069Z,22.80
2019-04-22T13:22:52.863Z,22.70
2019-04-22T13:25:20.732Z,22.70
2019-04-22T13:27:44.937Z,22.60
2019-04-22T13:30:12.311Z,22.50
2019-04-22T13:32:36.936Z,22.50
2019-04-22T13:35:03.972Z,22.60
2019-04-22T13:37:28.979Z,22.70
2019-04-22T13:39:54.970Z,22.90
2019-04-22T13:42:23.437Z,22.70
2019-04-22T13:44:47.762Z,22.70
2019-04-22T13:47:30.802Z,22.70
2019-04-22T13:50:28.338Z,22.70
2019-04-22T13:54:53.405Z,22.60
2019-04-22T13:57:20.107Z,22.60
2019-04-22T13:59:33.278Z,22.60
2019-04-22T14:01:52.386Z,22.60
2019-04-22T14:04:18.551Z,22.60
2019-04-22T14:06:44.870Z,22.60
2019-04-22T14:09:11.477Z,22.70
2019-04-22T14:11:47.460Z,22.70
2019-04-22T14:14:03.003Z,22.50
2019-04-22T14:16:29.066Z,22.50
2019-04-22T14:18:55.960Z,22.60
2019-04-22T14:21:21.178Z,22.60
2019-04-22T14:23:48.434Z,22.50
2019-04-22T14:26:13.388Z,22.40
2019-04-22T14:28:39.573Z,22.40
2019-04-22T14:31:06.637Z,22.30
2019-04-22T14:33:32.137Z,22.30
2019-04-22T14:35:58.522Z,22.30
2019-04-22T14:38:24.159Z,22.30
2019-04-22T14:40:50.154Z,22.30
2019-04-22T14:43:43.675Z,22.30
2019-04-22T14:48:38.711Z,22.30
2019-04-22T14:50:54.115Z,22.30
2019-04-22T14:53:23.654Z,22.40
2019-04-22T14:55:30.613Z,22.30
2019-04-22T14:57:53.362Z,22.30
2019-04-22T15:00:20.119Z,22.20
2019-04-22T15:02:46.120Z,22.20
2019-04-22T15:05:12.305Z,22.10
2019-04-22T15:07:39.454Z,22.10
2019-04-22T15:10:04.253Z,22.10
2019-04-22T15:12:37.873Z,22.10
2019-04-22T15:14:57.562Z,22.10
2019-04-22T15:17:22.861Z,22.00
2019-04-22T15:19:49.619Z,22.00
2019-04-22T15:22:14.685Z,22.00
2019-04-22T15:24:40.751Z,22.00
2019-04-22T15:27:06.622Z,22.00
2019-04-22T15:29:33.602Z,22.00
2019-04-22T15:31:59.931Z,22.00
2019-04-22T15:34:25.096Z,21.90
2019-04-22T15:36:50.782Z,21.80
2019-04-22T15:39:17.300Z,21.90
2019-04-22T15:41:55.530Z,21.80
2019-04-22T15:44:10.135Z,21.90
2019-04-22T15:46:35.071Z,21.90
2019-04-22T15:49:02.116Z,21.90
2019-04-22T15:51:28.873Z,21.80
2019-04-22T15:53:54.012Z,21.80
2019-04-22T15:56:21.073Z,21.80
2019-04-22T15:58:47.991Z,21.80
2019-04-22T16:01:21.832Z,21.70
2019-04-22T16:03:38.857Z,21.70
2019-04-22T16:06:06.087Z,21.80
2019-04-22T16:08:34.205Z,21.70
2019-04-22T16:10:57.872Z,21.70
2019-04-22T16:13:28.611Z,21.70
2019-04-22T16:15:50.579Z,21.60
2019-04-22T16:18:18.036Z,21.60
2019-04-22T16:20:43.908Z,21.60
2019-04-22T16:23:09.652Z,21.60
2019-04-22T16:25:35.564Z,21.60
2019-04-22T16:28:02.898Z,21.60
2019-04-22T16:30:27.815Z,21.50
2019-04-22T16:32:55.050Z,21.50
2019-04-22T16:35:22.419Z,21.40
2019-04-22T16:37:48.492Z,21.40
2019-04-22T16:40:14.584Z,21.30
2019-04-22T16:42:45.863Z,21.40
2019-04-22T16:45:05.331Z,21.30
2019-04-22T16:47:31.440Z,21.30
2019-04-22T16:49:57.498Z,21.30
2019-04-22T16:52:23.781Z,21.30
2019-04-22T16:54:50.648Z,21.30
2019-04-22T16:57:15.780Z,21.20
2019-04-22T16:59:42.730Z,21.20
2019-04-22T17:02:08.576Z,21.10
2019-04-22T17:04:34.547Z,21.10
2019-04-22T17:06:59.670Z,21.00
2019-04-22T17:09:25.870Z,21.00
2019-04-22T17:11:52.207Z,21.00
2019-04-22T17:14:32.334Z,20.90
2019-04-22T17:16:52.721Z,20.80
2019-04-22T17:19:17.519Z,20.80
2019-04-22T17:21:43.714Z,20.80
2019-04-22T17:24:09.785Z,20.70
2019-04-22T17:26:36.768Z,20.70
2019-04-22T17:29:04.629Z,20.60
2019-04-22T17:31:28.869Z,20.60
2019-04-22T17:33:54.911Z,20.50
2019-04-22T17:36:20.285Z,20.40
2019-04-22T17:38:56.467Z,20.30
2019-04-22T17:41:24.474Z,20.20
2019-04-22T17:44:04.865Z,20.10
2019-04-22T17:46:28.186Z,20.10
2019-04-22T17:48:53.300Z,20.10
2019-04-22T17:51:29.986Z,20.00
2019-04-22T17:53:48.580Z,19.90
2019-04-22T17:56:18.308Z,19.90
2019-04-22T17:58:45.082Z,19.80
2019-04-22T18:01:02.930Z,19.80
2019-04-22T18:03:20.333Z,19.70
2019-04-22T18:05:43.835Z,19.50
2019-04-22T18:08:17.447Z,19.50
2019-04-22T18:10:49.108Z,19.40
2019-04-22T18:13:20.497Z,19.40
2019-04-22T18:15:45.245Z,19.30
2019-04-22T18:18:12.578Z,19.30
2019-04-22T18:20:28.159Z,19.20
2019-04-22T18:22:50.347Z,19.10
2019-04-22T18:25:14.054Z,19.10
2019-04-22T18:27:53.945Z,19.00
2019-04-22T18:30:14.894Z,18.90
2019-04-22T18:32:42.524Z,18.80
2019-04-22T18:35:10.532Z,18.80
2019-04-22T18:37:31.356Z,18.70
2019-04-22T18:40:03.268Z,18.70
2019-04-22T18:42:24.415Z,18.60
2019-04-22T18:45:06.492Z,18.50
2019-04-22T18:47:14.519Z,18.40
2019-04-22T18:49:45.358Z,18.40
2019-04-22T18:52:18.377Z,18.40
2019-04-22T18:54:41.040Z,18.40
2019-04-22T18:57:05.315Z,18.40
2019-04-22T18:59:19.494Z,18.20
2019-04-22T19:01:38.133Z,18.20
2019-04-22T19:04:11.630Z,18.20
2019-04-22T19:06:52.345Z,18.10
2019-04-22T19:09:22.416Z,18.10
2019-04-22T19:11:59.414Z,18.10
2019-04-22T19:14:10.431Z,17.90
2019-04-22T19:19:20.619Z,17.70
2019-04-22T19:21:26.581Z,17.70
2019-04-22T19:23:58.474Z,17.50
2019-04-22T19:26:30.811Z,17.40
2019-04-22T19:28:48.328Z,17.40
2019-04-22T19:33:40.664Z,17.20
2019-04-22T19:36:11.325Z,17.20
2019-04-22T19:38:21.879Z,17.20
2019-04-22T19:43:30.965Z,17.00
2019-04-22T19:45:47.830Z,16.90
2019-04-22T19:48:27.151Z,16.80
2019-04-22T19:50:50.432Z,16.80
2019-04-22T19:53:10.691Z,16.80
2019-04-22T19:55:35.953Z,16.70
2019-04-22T19:58:00.321Z,16.70
2019-04-22T20:00:26.821Z,16.60
2019-04-22T20:03:04.836Z,16.60
2019-04-22T20:05:26.217Z,16.60
2019-04-22T20:07:42.515Z,16.60
2019-04-22T20:10:18.964Z,16.60
2019-04-22T20:12:41.155Z,16.50
2019-04-22T20:15:07.133Z,16.50
2019-04-22T20:17:52.615Z,16.40
2019-04-22T20:20:04.662Z,16.30
2019-04-22T20:22:25.237Z,16.30
2019-04-22T20:24:44.873Z,16.20
2019-04-22T20:27:18.932Z,16.20
2019-04-22T20:29:47.828Z,16.30
2019-04-22T20:32:13.789Z,16.20
2019-04-22T20:34:52.857Z,16.20
2019-04-22T20:37:10.635Z,16.20
2019-04-22T20:39:33.545Z,16.20
2019-04-22T20:42:12.560Z,16.20
2019-04-22T20:44:32.312Z,16.10
2019-04-22T20:46:44.894Z,16.10
2019-04-22T20:49:18.738Z,16.10
2019-04-22T20:51:53.624Z,16.10
2019-04-22T20:54:11.989Z,16.10
2019-04-22T20:56:29.973Z,16.10
2019-04-22T20:59:01.679Z,16.10
2019-04-22T21:01:28.551Z,16.00
2019-04-22T21:03:43.984Z,15.90
2019-04-22T21:06:14.975Z,15.90
2019-04-22T21:08:52.359Z,15.90
2019-04-22T21:11:07.823Z,15.80
2019-04-22T21:13:34.340Z,15.80
2019-04-22T21:16:10.594Z,15.80
2019-04-22T21:18:27.563Z,15.70
2019-04-22T21:20:57.536Z,15.60
2019-04-22T21:23:19.901Z,15.60
2019-04-22T21:25:40.017Z,15.50
2019-04-22T21:28:18.044Z,15.50
2019-04-22T21:30:37.591Z,15.50
2019-04-22T21:33:05.523Z,15.50
2019-04-22T21:35:47.545Z,15.50
2019-04-22T21:38:06.558Z,15.50
2019-04-22T21:40:32.290Z,15.40
2019-04-22T21:43:02.148Z,15.40
2019-04-22T21:45:14.730Z,15.40
2019-04-22T21:47:57.576Z,15.30
2019-04-22T21:50:30.984Z,15.30
2019-04-22T21:52:46.025Z,15.30
2019-04-22T21:55:14.419Z,15.20
2019-04-22T21:57:35.838Z,15.20
2019-04-22T21:59:59.483Z,15.20
2019-04-22T22:02:32.103Z,15.10
2019-04-22T22:04:47.376Z,15.10
2019-04-22T22:07:04.476Z,15.00
2019-04-22T22:09:42.864Z,14.90
2019-04-22T22:12:02.660Z,14.90
2019-04-22T22:14:31.765Z,14.80
2019-04-22T22:16:54.670Z,14.80
2019-04-22T22:19:30.176Z,14.80
2019-04-22T22:22:03.576Z,14.90
2019-04-22T22:24:22.691Z,14.90
2019-04-22T22:26:46.234Z,14.90
2019-04-22T22:29:18.773Z,14.70
2019-04-22T22:31:44.460Z,14.70
2019-04-22T22:34:09.472Z,14.60
2019-04-22T22:36:26.741Z,14.60
2019-04-22T22:38:52.590Z,14.60
2019-04-22T22:41:01.459Z,14.50
2019-04-22T22:43:35.205Z,14.50
2019-04-22T22:46:09.435Z,14.40
2019-04-22T22:48:46.164Z,14.50
2019-04-22T22:51:04.978Z,14.50
2019-04-22T22:55:57.971Z,14.30
2019-04-22T22:58:27.731Z,14.30
2019-04-22T23:00:44.163Z,14.20
2019-04-22T23:05:50.438Z,14.20
2019-04-22T23:08:17.095Z,14.10
2019-04-22T23:10:44.392Z,14.10
2019-04-22T23:13:09.403Z,14.00
2019-04-22T23:15:25.704Z,14.00
2019-04-22T23:17:37.826Z,13.90
2019-04-22T23:20:03.125Z,13.90
2019-04-22T23:22:36.214Z,13.90
2019-04-22T23:25:15.996Z,13.80
2019-04-22T23:27:32.472Z,13.70
2019-04-22T23:29:57.226Z,13.70
2019-04-22T23:32:23.795Z,13.60
2019-04-22T23:34:55.851Z,13.60
2019-04-22T23:37:16.208Z,13.50
2019-04-22T23:39:53.464Z,13.50
2019-04-22T23:42:19.507Z,13.50
2019-04-22T23:44:42.255Z,13.50
2019-04-22T23:47:01.943Z,13.40
2019-04-22T23:49:25.030Z,13.50
2019-04-22T23:52:16.273Z,13.40
2019-04-22T23:54:24.554Z,13.30
2019-04-22T23:56:48.056Z,13.30
2019-04-22T23:59:26.286Z,13.30
